Time;durP1;ratioP1;P1;durP2;ratioP2;P2;SDS_P1;SDS_P2;PMS_P1;PMS_P2;Temp;Humidity;BMP_temperature;BMP_pressure;BME280_temperature;BME280_humidity;BME280_pressure;Samples;Min_cycle;Max_cycle;Signal;HPM_P1;HPM_P2
2023/01/28 00:00:33;;;;;;;9.55;7.70;;;2.20;99.90;;;;;;5049874;28;20048;-63
2023/01/28 00:02:58;;;;;;;11.63;8.55;;;2.20;99.90;;;;;;5049994;28;20056;-61
2023/01/28 00:05:24;;;;;;;9.60;8.30;;;2.20;99.90;;;;;;5042590;28;20049;-63
2023/01/28 00:07:51;;;;;;;13.60;8.82;;;2.10;99.90;;;;;;5050603;28;20125;-60
2023/01/28 00:10:17;;;;;;;9.20;7.88;;;2.20;99.90;;;;;;5048829;28;20040;-62
2023/01/28 00:12:43;;;;;;;9.82;8.32;;;2.20;99.90;;;;;;5055474;28;20502;-63
2023/01/28 00:15:10;;;;;;;9.70;8.43;;;2.20;99.90;;;;;;5039964;28;20552;-61
2023/01/28 00:17:36;;;;;;;11.63;8.38;;;2.20;99.90;;;;;;5043563;28;20131;-61
2023/01/28 00:20:04;;;;;;;10.40;8.77;;;2.20;99.90;;;;;;5050911;28;20049;-61
2023/01/28 00:22:30;;;;;;;9.95;8.68;;;2.10;99.90;;;;;;5040657;28;20063;-61
2023/01/28 00:24:57;;;;;;;12.23;8.32;;;2.20;99.90;;;;;;5041520;28;20052;-61
2023/01/28 00:27:23;;;;;;;9.95;8.50;;;2.20;99.90;;;;;;5035516;28;20057;-62
2023/01/28 00:29:48;;;;;;;12.30;8.57;;;2.10;99.90;;;;;;5049558;28;20048;-61
2023/01/28 00:32:14;;;;;;;10.18;8.40;;;2.20;99.90;;;;;;5035088;28;20032;-62
2023/01/28 00:34:40;;;;;;;11.48;8.50;;;2.20;99.90;;;;;;5050489;28;20068;-61
2023/01/28 00:37:06;;;;;;;10.82;8.25;;;2.20;99.90;;;;;;5052082;28;20102;-62
2023/01/28 00:39:32;;;;;;;10.05;8.48;;;2.20;99.90;;;;;;5048320;28;20266;-63
2023/01/28 00:41:57;;;;;;;9.52;8.02;;;2.20;99.90;;;;;;5044671;28;20063;-62
2023/01/28 00:44:23;;;;;;;9.18;8.20;;;2.20;99.90;;;;;;5046682;28;20414;-62
2023/01/28 00:46:49;;;;;;;11.35;9.05;;;2.20;99.90;;;;;;5052152;28;20119;-61
2023/01/28 00:49:16;;;;;;;10.45;7.93;;;2.20;99.90;;;;;;5050252;28;20044;-60
2023/01/28 00:51:41;;;;;;;9.45;8.23;;;2.20;99.90;;;;;;5049055;28;20061;-62
2023/01/28 00:54:09;;;;;;;10.85;7.90;;;2.20;99.90;;;;;;5049968;28;20052;-61
2023/01/28 00:56:35;;;;;;;9.20;7.78;;;2.20;99.90;;;;;;5034868;28;20045;-63
2023/01/28 00:59:01;;;;;;;6.68;5.93;;;2.20;99.90;;;;;;5007538;28;20044;-62
2023/01/28 01:01:28;;;;;;;6.53;5.90;;;2.10;99.90;;;;;;5046377;28;20045;-63
2023/01/28 01:04:01;;;;;;;9.13;7.25;;;2.20;99.90;;;;;;5037175;28;20074;-63
2023/01/28 01:06:36;;;;;;;8.30;7.22;;;2.20;99.90;;;;;;5034105;28;20045;-63
2023/01/28 01:09:03;;;;;;;10.18;7.15;;;2.20;99.90;;;;;;5052883;28;20119;-61
2023/01/28 01:11:29;;;;;;;9.15;7.60;;;2.10;99.90;;;;;;5038009;28;20040;-61
2023/01/28 01:13:57;;;;;;;8.13;6.80;;;2.10;99.90;;;;;;5033172;28;20037;-61
2023/01/28 01:16:25;;;;;;;6.03;4.38;;;2.10;99.90;;;;;;5055259;28;20044;-61
2023/01/28 01:18:52;;;;;;;5.40;4.90;;;2.10;99.90;;;;;;5054608;28;20551;-62
2023/01/28 01:21:20;;;;;;;6.72;4.65;;;2.10;99.90;;;;;;5062061;28;20056;-61
2023/01/28 01:23:46;;;;;;;5.47;4.85;;;2.20;99.90;;;;;;5034455;28;20049;-61
2023/01/28 01:26:13;;;;;;;7.30;4.93;;;2.10;99.90;;;;;;5055131;28;20045;-61
2023/01/28 01:28:39;;;;;;;6.38;4.85;;;2.10;99.90;;;;;;5047987;28;20712;-60
2023/01/28 01:31:09;;;;;;;4.55;3.97;;;2.10;99.90;;;;;;5037770;28;20048;-61
2023/01/28 01:33:35;;;;;;;4.85;3.95;;;2.10;99.90;;;;;;5054675;28;20755;-61
2023/01/28 01:36:01;;;;;;;6.95;3.88;;;2.10;99.90;;;;;;5044677;28;20044;-63
2023/01/28 01:38:28;;;;;;;4.10;3.70;;;2.10;99.90;;;;;;5040908;28;20488;-61
2023/01/28 01:40:59;;;;;;;5.18;3.90;;;2.10;99.90;;;;;;5047667;28;20064;-62
2023/01/28 01:43:44;;;;;;;4.50;4.10;;;2.10;99.90;;;;;;5051118;28;20156;-61
2023/01/28 01:46:11;;;;;;;4.32;3.90;;;2.10;99.90;;;;;;5053564;28;20039;-61
2023/01/28 01:48:38;;;;;;;4.63;3.92;;;2.10;99.90;;;;;;5051940;28;20662;-64
2023/01/28 01:51:09;;;;;;;4.40;3.75;;;2.10;99.90;;;;;;5050558;28;20052;-61
2023/01/28 01:53:38;;;;;;;4.03;3.70;;;2.10;99.90;;;;;;5036225;28;20390;-61
2023/01/28 01:56:08;;;;;;;5.07;3.63;;;2.10;99.90;;;;;;5042219;28;20044;-61
2023/01/28 01:58:38;;;;;;;6.97;3.72;;;2.00;99.90;;;;;;5050417;28;20837;-63
2023/01/28 02:01:05;;;;;;;4.20;3.70;;;2.00;99.90;;;;;;5048320;28;20087;-63
2023/01/28 02:03:45;;;;;;;4.30;3.90;;;2.00;99.90;;;;;;5046639;28;20045;-60
2023/01/28 02:06:12;;;;;;;4.63;4.13;;;2.10;99.90;;;;;;5048077;28;20044;-63
2023/01/28 02:08:37;;;;;;;5.50;4.00;;;2.00;99.90;;;;;;5041439;28;20077;-61
2023/01/28 02:11:07;;;;;;;5.68;4.25;;;2.00;99.90;;;;;;5036671;28;20044;-60
2023/01/28 02:13:41;;;;;;;4.30;3.90;;;2.10;99.90;;;;;;5051512;28;20044;-62
2023/01/28 02:16:07;;;;;;;5.25;4.20;;;2.00;99.90;;;;;;5051647;28;20059;-61
2023/01/28 02:18:34;;;;;;;7.03;4.85;;;2.00;99.90;;;;;;5040010;28;20049;-62
2023/01/28 02:21:34;;;;;;;6.63;4.50;;;2.10;99.90;;;;;;5044374;28;20399;-62
2023/01/28 02:24:26;;;;;;;5.35;4.70;;;2.10;99.90;;;;;;5050897;28;20044;-62
2023/01/28 02:27:17;;;;;;;5.38;4.80;;;2.10;99.90;;;;;;5028084;28;20061;-61
2023/01/28 02:29:54;;;;;;;4.43;4.03;;;2.10;99.90;;;;;;5050486;28;20131;-62
2023/01/28 02:32:29;;;;;;;6.60;4.72;;;2.00;99.90;;;;;;5062809;28;20055;-61
2023/01/28 02:35:20;;;;;;;5.28;4.75;;;2.10;99.90;;;;;;5056919;28;20115;-61
2023/01/28 02:37:54;;;;;;;5.20;4.25;;;2.00;99.90;;;;;;5041200;28;20155;-62
2023/01/28 02:41:00;;;;;;;7.75;5.63;;;2.00;99.90;;;;;;5056766;28;20075;-61
2023/01/28 02:43:30;;;;;;;5.57;4.80;;;2.10;99.90;;;;;;5056165;28;20076;-62
2023/01/28 02:48:40;;;;;;;7.28;4.70;;;2.00;99.90;;;;;;5052334;28;20048;-62
2023/01/28 02:51:15;;;;;;;6.57;5.20;;;2.00;99.90;;;;;;5053269;28;20060;-61
2023/01/28 02:53:55;;;;;;;5.90;4.70;;;2.10;99.90;;;;;;5050377;28;20045;-61
2023/01/28 02:56:42;;;;;;;7.00;4.95;;;2.10;99.90;;;;;;5048102;28;20052;-61
2023/01/28 02:59:35;;;;;;;5.80;4.68;;;2.00;99.90;;;;;;5049007;28;20048;-61
2023/01/28 03:02:19;;;;;;;6.93;4.97;;;2.00;99.90;;;;;;5035750;28;20128;-61
2023/01/28 03:05:10;;;;;;;9.52;5.38;;;2.10;99.90;;;;;;5033996;28;20499;-61
2023/01/28 03:07:38;;;;;;;6.65;5.00;;;2.10;99.90;;;;;;5054185;28;20049;-61
2023/01/28 03:10:08;;;;;;;7.47;5.22;;;2.00;99.90;;;;;;5050991;28;20049;-60
2023/01/28 03:38:21;;;;;;;5.55;4.95;;;2.00;99.90;;;;;;5048433;28;20563;-61
2023/01/28 03:41:01;;;;;;;5.82;4.90;;;2.00;99.90;;;;;;5054360;28;21009;-61
2023/01/28 03:43:30;;;;;;;6.30;5.50;;;1.90;99.90;;;;;;5031741;28;20494;-61
2023/01/28 03:45:57;;;;;;;6.05;5.07;;;2.00;99.90;;;;;;5042920;28;20084;-63
2023/01/28 03:48:25;;;;;;;5.68;4.90;;;2.00;99.90;;;;;;5052592;28;20057;-61
2023/01/28 03:50:52;;;;;;;7.63;5.57;;;1.90;99.90;;;;;;5046735;28;20114;-61
2023/01/28 03:53:18;;;;;;;5.57;4.78;;;1.90;99.90;;;;;;5039433;28;20048;-61
2023/01/28 03:55:46;;;;;;;7.22;5.38;;;2.00;99.90;;;;;;5050661;28;20059;-61
2023/01/28 03:58:13;;;;;;;7.22;5.40;;;1.90;99.90;;;;;;5045387;28;20378;-63
2023/01/28 04:00:42;;;;;;;8.27;5.78;;;2.00;99.90;;;;;;5049212;28;20053;-63
2023/01/28 04:03:16;;;;;;;8.60;5.50;;;1.90;99.90;;;;;;5051831;28;20092;-61
2023/01/28 04:06:05;;;;;;;6.88;5.68;;;1.90;99.90;;;;;;5044169;28;20053;-61
2023/01/28 04:08:31;;;;;;;7.03;5.38;;;1.90;99.90;;;;;;5049810;28;20049;-62
2023/01/28 04:10:57;;;;;;;7.05;5.40;;;1.90;99.90;;;;;;5035063;28;20060;-61
2023/01/28 04:13:23;;;;;;;6.03;5.43;;;1.90;99.90;;;;;;5040930;28;20491;-63
2023/01/28 04:15:49;;;;;;;6.60;5.30;;;1.90;99.90;;;;;;5050520;28;20056;-62
2023/01/28 04:18:15;;;;;;;6.97;5.35;;;2.00;99.90;;;;;;5042218;28;20060;-61
2023/01/28 04:20:40;;;;;;;7.55;5.45;;;1.90;99.90;;;;;;5050855;28;20040;-61
2023/01/28 04:23:07;;;;;;;6.78;5.70;;;1.90;99.90;;;;;;5049277;28;20484;-61
2023/01/28 04:25:33;;;;;;;7.65;5.53;;;1.90;99.90;;;;;;5051153;28;20049;-60
2023/01/28 04:27:59;;;;;;;6.65;5.63;;;1.90;99.90;;;;;;5037359;28;20056;-61
2023/01/28 04:30:25;;;;;;;5.65;5.03;;;1.80;99.90;;;;;;5048090;28;20043;-63
2023/01/28 04:32:51;;;;;;;6.97;5.50;;;1.80;99.90;;;;;;5053612;28;20045;-61
2023/01/28 04:35:18;;;;;;;5.68;4.95;;;1.80;99.90;;;;;;5042139;28;20475;-61
2023/01/28 04:37:44;;;;;;;8.70;5.43;;;1.80;99.90;;;;;;5052615;28;20119;-62
2023/01/28 04:40:12;;;;;;;6.95;5.28;;;1.80;99.90;;;;;;5048555;28;20111;-61
2023/01/28 04:42:38;;;;;;;5.93;5.32;;;1.80;99.90;;;;;;5048090;28;20051;-62
2023/01/28 04:45:05;;;;;;;6.63;5.38;;;1.80;99.90;;;;;;5039363;28;20134;-60
2023/01/28 04:47:31;;;;;;;7.70;5.68;;;1.80;99.90;;;;;;5054471;28;20586;-62
2023/01/28 04:49:56;;;;;;;6.30;5.63;;;1.80;99.90;;;;;;5059178;28;20048;-61
2023/01/28 04:52:22;;;;;;;6.10;5.32;;;1.80;99.90;;;;;;5095118;28;20131;-61
2023/01/28 04:54:48;;;;;;;7.85;5.93;;;1.80;99.90;;;;;;5049985;28;20438;-62
2023/01/28 04:57:15;;;;;;;10.55;6.15;;;1.80;99.90;;;;;;5080550;28;20090;-63
2023/01/28 04:59:41;;;;;;;6.70;5.68;;;1.80;99.90;;;;;;5073243;28;20481;-61
2023/01/28 05:02:06;;;;;;;7.53;6.10;;;1.80;99.90;;;;;;5068320;28;20040;-63
2023/01/28 05:04:32;;;;;;;6.70;5.63;;;1.80;99.90;;;;;;5075577;28;20052;-63
2023/01/28 05:06:58;;;;;;;6.45;5.75;;;1.80;99.90;;;;;;5073837;28;20134;-61
2023/01/28 05:09:24;;;;;;;6.30;5.63;;;1.80;99.90;;;;;;5073523;28;20083;-61
2023/01/28 05:11:50;;;;;;;6.80;5.90;;;1.80;99.90;;;;;;5073443;28;20126;-62
2023/01/28 05:14:16;;;;;;;10.13;6.43;;;1.80;99.90;;;;;;5068125;28;20105;-63
2023/01/28 05:16:41;;;;;;;10.55;6.95;;;1.80;99.90;;;;;;5075182;28;20490;-61
2023/01/28 05:19:07;;;;;;;7.53;6.55;;;1.80;99.90;;;;;;5071945;28;20039;-63
2023/01/28 05:21:33;;;;;;;7.35;6.30;;;1.80;99.90;;;;;;5055869;28;20044;-62
2023/01/28 05:23:59;;;;;;;7.97;6.82;;;1.80;99.90;;;;;;5074750;28;20077;-62
2023/01/28 05:26:25;;;;;;;10.65;6.55;;;1.80;99.90;;;;;;5068474;28;21101;-62
2023/01/28 05:28:50;;;;;;;8.77;6.47;;;1.80;99.90;;;;;;5072518;28;20169;-62
2023/01/28 05:31:16;;;;;;;8.68;6.82;;;1.80;99.90;;;;;;5061164;28;20090;-61
2023/01/28 05:33:42;;;;;;;8.60;6.68;;;1.80;99.90;;;;;;5056254;28;20062;-61
2023/01/28 05:36:08;;;;;;;8.88;6.85;;;1.70;99.90;;;;;;5054221;28;20052;-62
2023/01/28 05:38:33;;;;;;;7.85;6.93;;;1.70;99.90;;;;;;5089167;28;20486;-63
2023/01/28 05:40:59;;;;;;;8.63;7.13;;;1.80;99.90;;;;;;5066492;28;20044;-62
2023/01/28 05:43:25;;;;;;;9.60;7.07;;;1.70;99.90;;;;;;5069977;28;20058;-62
2023/01/28 05:45:51;;;;;;;11.13;8.52;;;1.70;99.90;;;;;;5055665;28;20150;-61
2023/01/28 05:48:17;;;;;;;9.32;7.90;;;1.70;99.90;;;;;;5075196;28;20044;-61
2023/01/28 05:50:42;;;;;;;11.55;8.73;;;1.70;99.90;;;;;;5054992;28;20048;-61
2023/01/28 05:53:08;;;;;;;14.23;8.85;;;1.70;99.90;;;;;;5075307;28;20051;-61
2023/01/28 05:55:34;;;;;;;10.90;8.10;;;1.70;99.90;;;;;;5072174;28;20035;-63
2023/01/28 05:58:00;;;;;;;9.95;8.23;;;1.70;99.90;;;;;;5069445;28;20043;-60
2023/01/28 06:00:26;;;;;;;10.55;8.60;;;1.70;99.90;;;;;;5068369;28;20039;-61
2023/01/28 06:02:53;;;;;;;10.00;7.90;;;1.70;99.90;;;;;;5065371;28;20116;-62
2023/01/28 06:05:18;;;;;;;12.07;9.07;;;1.70;99.90;;;;;;5071976;28;20052;-63
2023/01/28 06:07:45;;;;;;;11.73;8.77;;;1.60;99.90;;;;;;5071197;28;20075;-61
2023/01/28 06:10:11;;;;;;;9.23;8.07;;;1.70;99.90;;;;;;5064296;28;20117;-62
2023/01/28 06:12:37;;;;;;;11.52;8.73;;;1.60;99.90;;;;;;5053969;28;20044;-63
2023/01/28 06:15:03;;;;;;;10.73;8.75;;;1.70;99.90;;;;;;5088794;28;20568;-63
2023/01/28 06:17:29;;;;;;;11.00;9.00;;;1.60;99.90;;;;;;5019167;28;20054;-62
2023/01/28 06:19:55;;;;;;;11.55;9.18;;;1.70;99.90;;;;;;5065601;28;20048;-62
2023/01/28 06:22:21;;;;;;;11.48;9.00;;;1.70;99.90;;;;;;5068657;28;20113;-62
2023/01/28 06:24:46;;;;;;;11.30;9.07;;;1.70;99.90;;;;;;5065579;28;20144;-62
2023/01/28 06:27:12;;;;;;;10.88;9.07;;;1.70;99.90;;;;;;5052584;28;20136;-61
2023/01/28 06:29:38;;;;;;;10.95;8.63;;;1.60;99.90;;;;;;5062529;28;20136;-61
2023/01/28 06:32:04;;;;;;;10.60;8.75;;;1.70;99.90;;;;;;5061025;28;20103;-61
2023/01/28 06:34:30;;;;;;;12.15;8.85;;;1.60;99.90;;;;;;5070066;28;20158;-63
2023/01/28 06:36:56;;;;;;;10.05;8.60;;;1.90;99.90;;;;;;5070569;28;25995;-61
2023/01/28 06:39:22;;;;;;;13.88;9.75;;;1.70;99.90;;;;;;5067176;28;20051;-62
2023/01/28 06:41:48;;;;;;;10.27;8.27;;;1.80;99.90;;;;;;5033398;28;20131;-61
2023/01/28 06:44:15;;;;;;;11.00;8.40;;;1.60;99.90;;;;;;5085241;28;20092;-63
2023/01/28 06:46:41;;;;;;;11.10;8.50;;;1.60;99.90;;;;;;5068187;28;20137;-61
2023/01/28 06:49:07;;;;;;;10.48;8.05;;;1.60;99.90;;;;;;5070877;28;20044;-61
2023/01/28 06:51:33;;;;;;;10.20;7.57;;;1.60;99.90;;;;;;5058078;28;20091;-61
2023/01/28 06:53:59;;;;;;;13.70;8.80;;;1.60;99.90;;;;;;5055018;28;20036;-61
2023/01/28 06:56:25;;;;;;;11.40;8.35;;;1.60;99.90;;;;;;5066148;28;20587;-64
2023/01/28 06:58:50;;;;;;;10.82;8.02;;;1.60;99.90;;;;;;5070804;28;20092;-63
2023/01/28 07:01:16;;;;;;;9.10;7.32;;;1.50;99.90;;;;;;5061285;28;20539;-61
2023/01/28 07:03:42;;;;;;;8.55;7.13;;;1.60;99.90;;;;;;5068444;28;20393;-62
2023/01/28 07:06:08;;;;;;;11.52;7.63;;;1.60;99.90;;;;;;5068436;28;20051;-63
2023/01/28 07:08:34;;;;;;;10.65;8.30;;;1.60;99.90;;;;;;5056329;28;20289;-63
2023/01/28 07:11:00;;;;;;;8.93;7.47;;;1.60;99.90;;;;;;5072802;28;20051;-63
2023/01/28 07:13:26;;;;;;;10.00;7.75;;;1.50;99.90;;;;;;5070983;28;20493;-62
2023/01/28 07:15:52;;;;;;;8.85;7.35;;;1.50;99.90;;;;;;5068505;28;20127;-62
2023/01/28 07:18:17;;;;;;;9.18;7.63;;;1.50;99.90;;;;;;5076660;28;20054;-61
2023/01/28 07:20:43;;;;;;;11.25;8.77;;;1.50;99.90;;;;;;5074598;28;20742;-63
2023/01/28 07:23:09;;;;;;;10.70;7.93;;;1.50;99.90;;;;;;5087396;27;20044;-61
2023/01/28 07:25:35;;;;;;;10.55;7.68;;;1.40;99.90;;;;;;5071529;28;20032;-62
2023/01/28 07:28:00;;;;;;;10.02;7.25;;;1.40;99.90;;;;;;5085036;28;20078;-62
2023/01/28 07:30:26;;;;;;;9.10;7.35;;;1.30;99.90;;;;;;5074637;28;20108;-62
2023/01/28 07:32:54;;;;;;;8.50;7.20;;;1.30;99.90;;;;;;5050185;28;20081;-63
2023/01/28 07:35:20;;;;;;;8.60;7.13;;;1.20;99.90;;;;;;5074997;28;20137;-63
2023/01/28 07:37:57;;;;;;;10.68;6.97;;;1.30;99.90;;;;;;5075605;28;20058;-60
2023/01/28 07:40:24;;;;;;;8.93;7.55;;;1.20;99.90;;;;;;5047757;28;20486;-63
2023/01/28 07:42:51;;;;;;;8.60;7.13;;;1.20;99.90;;;;;;5085186;28;20078;-63
2023/01/28 07:45:17;;;;;;;10.15;7.45;;;1.20;99.90;;;;;;5071240;28;20047;-62
2023/01/28 07:47:43;;;;;;;10.77;7.47;;;1.20;99.90;;;;;;5084422;28;21383;-61
2023/01/28 07:50:10;;;;;;;8.25;6.85;;;1.10;99.90;;;;;;5064244;28;20074;-62
2023/01/28 07:52:43;;;;;;;8.60;7.10;;;1.10;99.90;;;;;;5073480;28;20042;-62
2023/01/28 07:55:11;;;;;;;8.80;7.55;;;1.00;99.90;;;;;;5058311;28;20039;-63
2023/01/28 07:57:46;;;;;;;9.57;7.53;;;1.00;99.90;;;;;;5084715;28;20050;-61
2023/01/28 08:00:12;;;;;;;10.50;7.85;;;1.00;99.90;;;;;;5070305;28;20493;-61
2023/01/28 08:02:38;;;;;;;10.68;7.80;;;1.00;99.90;;;;;;5074440;28;20055;-63
2023/01/28 08:05:04;;;;;;;10.25;7.70;;;0.90;99.90;;;;;;5084392;28;20115;-61
2023/01/28 08:07:30;;;;;;;9.48;7.55;;;0.90;99.90;;;;;;5071454;28;20051;-62
2023/01/28 08:09:56;;;;;;;9.40;7.32;;;0.90;99.90;;;;;;5072795;28;20050;-61
2023/01/28 08:12:23;;;;;;;9.65;7.53;;;0.90;99.90;;;;;;5090800;28;20128;-61
2023/01/28 08:14:49;;;;;;;10.50;7.82;;;0.90;99.90;;;;;;5074121;28;20040;-62
2023/01/28 08:17:14;;;;;;;12.88;8.48;;;0.90;99.90;;;;;;5074451;28;20048;-63
2023/01/28 08:19:40;;;;;;;11.07;8.13;;;0.90;99.90;;;;;;5073310;28;20073;-61
2023/01/28 08:22:06;;;;;;;10.52;7.80;;;1.00;99.90;;;;;;5068563;28;20461;-61
2023/01/28 08:24:32;;;;;;;9.88;7.95;;;1.00;99.90;;;;;;5073885;28;20520;-62
2023/01/28 08:26:57;;;;;;;10.95;8.25;;;1.10;99.90;;;;;;5065329;28;20048;-64
2023/01/28 08:29:23;;;;;;;10.25;7.85;;;1.10;99.90;;;;;;5073521;28;20608;-61
2023/01/28 08:31:49;;;;;;;11.25;8.18;;;1.20;99.90;;;;;;5061277;28;20047;-62
2023/01/28 08:34:15;;;;;;;9.43;7.95;;;1.20;99.90;;;;;;5049835;28;20404;-61
2023/01/28 08:36:40;;;;;;;10.07;7.35;;;1.20;99.90;;;;;;5085753;28;20489;-62
2023/01/28 08:39:06;;;;;;;9.98;8.25;;;1.30;99.90;;;;;;5039979;28;20122;-62
2023/01/28 08:41:32;;;;;;;13.05;7.93;;;1.30;99.90;;;;;;5048754;28;20355;-61
2023/01/28 08:43:59;;;;;;;10.18;7.18;;;1.30;99.90;;;;;;5073597;28;20658;-62
2023/01/28 08:46:25;;;;;;;10.20;8.30;;;1.20;99.90;;;;;;5065673;28;20128;-62
2023/01/28 08:48:50;;;;;;;11.25;7.60;;;1.30;99.90;;;;;;5090106;28;20200;-61
2023/01/28 08:51:16;;;;;;;12.00;7.70;;;1.30;99.90;;;;;;5060420;28;20147;-62
2023/01/28 08:53:42;;;;;;;11.00;8.27;;;1.30;99.90;;;;;;5036842;28;20095;-61
2023/01/28 08:56:08;;;;;;;9.95;8.25;;;1.30;99.90;;;;;;5050207;28;20045;-62
2023/01/28 08:58:34;;;;;;;9.05;7.75;;;1.40;99.90;;;;;;5026390;28;20399;-62
2023/01/28 09:01:04;;;;;;;10.73;7.55;;;1.50;99.90;;;;;;5049009;28;20066;-62
2023/01/28 09:03:30;;;;;;;11.77;8.20;;;1.40;99.90;;;;;;5049265;28;20490;-62
2023/01/28 09:06:03;;;;;;;10.80;8.38;;;1.40;99.90;;;;;;5047718;28;20051;-63
2023/01/28 09:08:29;;;;;;;9.70;7.80;;;1.50;99.90;;;;;;5049481;28;20052;-63
2023/01/28 09:10:56;;;;;;;10.88;7.68;;;1.50;99.90;;;;;;5034026;28;20052;-61
2023/01/28 09:13:23;;;;;;;9.48;7.97;;;1.60;99.90;;;;;;5035678;28;20106;-60
2023/01/28 09:15:50;;;;;;;11.38;8.18;;;1.60;99.90;;;;;;5048043;28;20040;-62
2023/01/28 09:18:17;;;;;;;10.68;8.18;;;1.80;99.90;;;;;;5049707;28;20112;-62
2023/01/28 09:20:42;;;;;;;9.35;7.43;;;1.70;99.90;;;;;;5049923;28;20053;-61
2023/01/28 09:23:09;;;;;;;9.93;8.20;;;1.80;99.90;;;;;;5014654;28;20049;-62
2023/01/28 09:25:35;;;;;;;13.52;8.68;;;1.80;99.90;;;;;;5038541;28;20048;-62
2023/01/28 09:28:01;;;;;;;11.40;8.13;;;2.00;99.90;;;;;;5045631;28;20036;-61
2023/01/28 09:30:28;;;;;;;10.02;7.75;;;2.10;99.90;;;;;;5046269;28;22644;-62
2023/01/28 09:32:55;;;;;;;10.65;8.38;;;2.30;99.90;;;;;;5030551;28;20037;-62
2023/01/28 09:35:21;;;;;;;11.13;7.88;;;2.50;99.90;;;;;;5049897;28;20059;-62
2023/01/28 09:37:47;;;;;;;8.55;7.10;;;2.60;99.90;;;;;;5049103;28;20137;-62
2023/01/28 09:40:23;;;;;;;9.73;7.57;;;2.70;99.90;;;;;;5050132;28;20134;-61
2023/01/28 09:42:57;;;;;;;9.18;7.70;;;2.70;99.90;;;;;;5043152;28;20045;-62
2023/01/28 09:45:23;;;;;;;10.80;7.90;;;2.80;99.90;;;;;;5043384;28;20521;-62
2023/01/28 09:47:55;;;;;;;12.65;7.55;;;2.90;99.90;;;;;;5039220;28;20048;-64
2023/01/28 09:50:43;;;;;;;10.52;7.47;;;3.00;99.90;;;;;;5049935;28;21254;-62
2023/01/28 09:53:17;;;;;;;11.55;7.55;;;3.10;99.90;;;;;;5077273;28;20055;-62
2023/01/28 09:55:46;;;;;;;8.70;7.18;;;3.20;99.90;;;;;;5068264;28;20089;-62
2023/01/28 09:58:16;;;;;;;10.15;7.75;;;3.40;99.90;;;;;;5068680;28;20071;-62
2023/01/28 10:01:01;;;;;;;10.45;8.35;;;3.40;99.90;;;;;;5067925;28;21272;-62
2023/01/28 10:03:33;;;;;;;9.27;7.47;;;3.60;99.90;;;;;;5070232;28;21338;-63
2023/01/28 10:06:19;;;;;;;9.43;7.78;;;3.80;99.90;;;;;;5064285;28;20043;-63
2023/01/28 10:08:51;;;;;;;9.38;7.85;;;3.90;99.90;;;;;;5068631;28;20071;-62
2023/01/28 10:11:50;;;;;;;10.10;7.35;;;4.00;99.90;;;;;;5066600;28;20048;-62
2023/01/28 10:14:15;;;;;;;9.43;6.97;;;4.20;99.90;;;;;;5068756;28;20055;-62
2023/01/28 10:16:49;;;;;;;9.52;6.97;;;4.30;99.90;;;;;;5056089;28;20494;-62
2023/01/28 10:19:33;;;;;;;8.88;7.05;;;4.30;99.90;;;;;;5075488;28;20050;-62
2023/01/28 10:22:01;;;;;;;9.57;7.45;;;4.50;99.90;;;;;;5054319;28;22290;-63
2023/01/28 10:24:34;;;;;;;9.95;7.55;;;4.60;99.90;;;;;;5066930;28;20039;-61
2023/01/28 10:27:02;;;;;;;10.25;7.57;;;4.80;99.90;;;;;;5084150;28;20111;-61
2023/01/28 10:29:32;;;;;;;10.23;6.72;;;4.90;99.90;;;;;;5070999;28;20083;-61
2023/01/28 10:32:24;;;;;;;10.30;7.47;;;5.00;99.90;;;;;;5068967;28;20122;-61
2023/01/28 10:34:51;;;;;;;8.85;6.93;;;5.00;99.90;;;;;;5060718;28;20048;-61
2023/01/28 10:37:17;;;;;;;10.10;7.00;;;5.00;99.90;;;;;;5071618;28;20036;-61
2023/01/28 10:39:43;;;;;;;11.32;7.32;;;5.00;99.90;;;;;;5074950;28;20051;-61
2023/01/28 10:42:34;;;;;;;8.93;6.80;;;4.90;99.90;;;;;;5073873;28;20065;-62
2023/01/28 10:45:06;;;;;;;8.90;7.53;;;5.10;99.90;;;;;;5062712;28;22197;-63
2023/01/28 10:47:47;;;;;;;8.93;6.73;;;5.10;99.90;;;;;;5095756;28;20318;-62
2023/01/28 10:50:25;;;;;;;10.75;7.07;;;5.20;99.90;;;;;;5076411;28;20036;-61
2023/01/28 10:53:03;;;;;;;9.30;7.03;;;5.20;99.90;;;;;;5072847;28;20124;-62
2023/01/28 10:55:49;;;;;;;11.57;7.35;;;5.20;99.90;;;;;;5074165;28;20067;-62
2023/01/28 10:58:22;;;;;;;8.68;6.85;;;5.30;99.90;;;;;;5084186;28;20343;-62
2023/01/28 11:01:12;;;;;;;10.70;6.38;;;5.30;99.90;;;;;;5067880;28;20127;-62
2023/01/28 11:03:40;;;;;;;9.35;6.75;;;5.40;99.90;;;;;;5064715;28;22779;-61
2023/01/28 11:06:06;;;;;;;11.35;6.80;;;5.40;99.90;;;;;;5070956;28;20128;-62
2023/01/28 11:08:43;;;;;;;11.45;7.00;;;5.50;99.90;;;;;;5075279;28;20079;-61
2023/01/28 11:11:14;;;;;;;11.63;6.47;;;5.40;99.90;;;;;;5090084;28;20064;-61
2023/01/28 11:13:49;;;;;;;10.60;7.53;;;5.40;99.90;;;;;;5092309;28;20039;-63
2023/01/28 11:16:17;;;;;;;9.27;6.68;;;5.40;99.90;;;;;;5072464;28;20044;-61
2023/01/28 11:19:05;;;;;;;13.25;7.60;;;5.40;99.90;;;;;;5090805;28;20043;-63
2023/01/28 11:21:33;;;;;;;10.75;7.05;;;5.30;99.90;;;;;;5054230;28;20040;-61
2023/01/28 11:24:05;;;;;;;10.07;6.55;;;5.30;99.90;;;;;;5058252;28;20048;-61
2023/01/28 11:26:42;;;;;;;10.55;7.05;;;5.30;99.90;;;;;;5075107;28;20040;-62
2023/01/28 11:29:24;;;;;;;11.20;7.10;;;5.20;99.90;;;;;;5074984;27;20101;-62
2023/01/28 11:31:50;;;;;;;10.40;6.40;;;5.20;99.90;;;;;;5068822;28;20115;-62
2023/01/28 11:34:18;;;;;;;9.25;6.65;;;5.20;99.90;;;;;;5072461;28;20509;-61
2023/01/28 11:37:09;;;;;;;8.75;7.15;;;5.20;99.90;;;;;;5070135;28;20075;-62
2023/01/28 11:39:35;;;;;;;10.48;7.78;;;5.20;99.90;;;;;;5068324;28;20117;-62
2023/01/28 11:42:20;;;;;;;10.55;7.30;;;5.20;99.90;;;;;;5075139;28;20044;-62
2023/01/28 11:44:47;;;;;;;10.05;7.03;;;5.20;99.90;;;;;;5068045;28;20047;-62
2023/01/28 11:47:56;;;;;;;10.85;7.20;;;5.20;99.90;;;;;;5087949;28;20126;-62
2023/01/28 11:50:29;;;;;;;11.70;7.20;;;5.20;99.90;;;;;;5079759;28;21272;-62
2023/01/28 11:53:10;;;;;;;;;;;5.20;99.90;;;;;;5054609;28;20109;-62
2023/01/28 11:55:44;;;;;;;10.48;7.53;;;5.10;99.90;;;;;;5079919;28;19916;-61
2023/01/28 11:58:23;;;;;;;10.63;7.80;;;5.10;99.90;;;;;;5070505;28;20997;-61
2023/01/28 12:01:11;;;;;;;9.60;7.80;;;5.10;99.90;;;;;;5070184;28;20071;-61
2023/01/28 12:04:10;;;;;;;9.90;7.25;;;5.10;99.90;;;;;;5090833;28;20105;-61
2023/01/28 12:07:09;;;;;;;12.77;7.85;;;5.10;99.90;;;;;;5069615;28;20040;-62
2023/01/28 12:09:56;;;;;;;12.70;7.50;;;5.00;99.90;;;;;;5072406;28;20134;-61
2023/01/28 12:13:23;;;;;;;10.57;7.35;;;5.00;99.90;;;;;;5075068;28;20057;-62
2023/01/28 12:15:56;;;;;;;10.93;7.68;;;4.90;99.90;;;;;;4981861;28;20049;-63
2023/01/28 12:18:21;;;;;;;;;;;4.90;99.90;;;;;;5094614;28;20040;-63
2023/01/28 12:21:09;;;;;;;9.55;7.65;;;4.80;99.90;;;;;;5091494;28;19930;-61
2023/01/28 12:24:03;;;;;;;11.13;8.30;;;4.80;99.90;;;;;;5090776;28;20039;-61
2023/01/28 12:26:45;;;;;;;9.25;7.63;;;4.80;99.90;;;;;;5082044;28;20048;-61
2023/01/28 12:29:59;;;;;;;9.70;7.75;;;4.90;99.90;;;;;;5067661;28;20044;-62
2023/01/28 12:32:49;;;;;;;9.95;7.43;;;5.00;99.90;;;;;;5014176;28;20507;-61
2023/01/28 12:35:23;;;;;;;10.07;7.60;;;5.10;99.90;;;;;;5000298;28;20974;-60
2023/01/28 12:37:59;;;;;;;10.05;8.10;;;5.20;99.90;;;;;;5051512;28;20130;-62
2023/01/28 12:40:40;;;;;;;12.63;7.45;;;5.40;99.90;;;;;;5066367;28;20052;-62
2023/01/28 12:43:18;;;;;;;10.38;7.60;;;5.50;99.90;;;;;;5050011;28;20120;-60
2023/01/28 12:45:48;;;;;;;10.85;7.30;;;5.70;99.90;;;;;;5085360;28;20050;-62
2023/01/28 12:48:38;;;;;;;9.73;7.25;;;5.80;99.90;;;;;;5068508;28;20485;-63
2023/01/28 12:51:13;;;;;;;9.88;7.55;;;6.00;99.90;;;;;;5054346;28;20055;-61
2023/01/28 12:53:58;;;;;;;10.05;6.93;;;6.20;99.90;;;;;;5070458;28;20123;-60
2023/01/28 12:56:35;;;;;;;11.50;7.15;;;6.40;99.90;;;;;;5071035;28;20069;-62
2023/01/28 12:59:12;;;;;;;11.20;7.28;;;6.50;99.90;;;;;;5069445;28;20131;-61
2023/01/28 13:01:47;;;;;;;9.10;6.47;;;6.70;99.90;;;;;;5073875;28;20056;-61
2023/01/28 13:04:42;;;;;;;8.10;6.53;;;6.90;99.90;;;;;;5066087;28;20052;-61
2023/01/28 13:07:20;;;;;;;8.98;6.90;;;7.20;99.90;;;;;;5050285;28;20048;-61
2023/01/28 13:09:53;;;;;;;11.95;6.63;;;7.40;99.90;;;;;;5058482;28;20040;-61
2023/01/28 13:12:20;;;;;;;9.85;6.55;;;7.60;99.90;;;;;;5063150;28;20131;-61
2023/01/28 13:14:47;;;;;;;7.47;5.95;;;7.60;99.90;;;;;;5069717;28;20485;-61
2023/01/28 13:17:26;;;;;;;8.90;6.03;;;7.60;99.90;;;;;;5064261;28;20669;-62
2023/01/28 13:19:52;;;;;;;9.35;6.28;;;7.60;99.90;;;;;;5064608;28;20052;-62
2023/01/28 13:22:34;;;;;;;12.00;6.63;;;7.40;99.90;;;;;;5081840;28;20903;-61
2023/01/28 13:25:35;;;;;;;9.07;6.50;;;7.30;99.90;;;;;;5053672;28;20122;-61
2023/01/28 13:28:04;;;;;;;7.95;5.90;;;7.20;99.90;;;;;;5036351;28;20056;-62
2023/01/28 13:30:31;;;;;;;7.80;6.10;;;7.10;99.90;;;;;;5067313;28;20051;-61
2023/01/28 13:33:02;;;;;;;11.07;6.22;;;7.00;99.90;;;;;;5084109;28;20032;-62
2023/01/28 13:35:36;;;;;;;8.63;6.10;;;6.90;99.90;;;;;;5063194;28;20040;-62
2023/01/28 13:38:16;;;;;;;8.45;5.50;;;6.80;99.90;;;;;;5062511;28;20052;-61
2023/01/28 13:40:43;;;;;;;8.57;6.03;;;6.70;99.90;;;;;;5065904;28;20052;-62